createdAt,value
2019-05-25T00:01:33.136Z,9.30
2019-05-25T00:04:02.281Z,9.30
2019-05-25T00:06:31.538Z,9.30
2019-05-25T00:09:00.720Z,9.30
2019-05-25T00:11:29.831Z,9.30
2019-05-25T00:13:59.993Z,9.30
2019-05-25T00:16:29.695Z,9.40
2019-05-25T00:18:58.903Z,9.40
2019-05-25T00:21:27.992Z,9.40
2019-05-25T00:24:11.187Z,9.40
2019-05-25T00:26:29.976Z,9.40
2019-05-25T00:28:59.120Z,9.40
2019-05-25T00:31:28.119Z,9.40
2019-05-25T00:33:57.047Z,9.40
2019-05-25T00:36:26.248Z,9.40
2019-05-25T00:38:55.455Z,9.40
2019-05-25T00:41:24.632Z,9.40
2019-05-25T00:43:54.272Z,9.40
2019-05-25T00:46:23.343Z,9.40
2019-05-25T00:48:52.408Z,9.40
2019-05-25T00:51:21.456Z,9.40
2019-05-25T00:53:50.679Z,9.40
2019-05-25T00:56:19.848Z,9.40
2019-05-25T00:58:48.912Z,9.40
2019-05-25T01:01:17.928Z,9.40
2019-05-25T01:03:47.112Z,9.40
2019-05-25T01:06:19.017Z,9.40
2019-05-25T01:08:47.904Z,9.40
2019-05-25T01:11:16.951Z,9.40
2019-05-25T01:13:45.888Z,9.40
2019-05-25T01:16:14.928Z,9.40
2019-05-25T01:18:43.856Z,9.40
2019-05-25T01:21:12.943Z,9.40
2019-05-25T01:23:42.083Z,9.40
2019-05-25T01:26:11.730Z,9.40
2019-05-25T01:28:41.177Z,9.40
2019-05-25T01:31:10.144Z,9.40
2019-05-25T01:33:39.096Z,9.40
2019-05-25T01:36:08.208Z,9.40
2019-05-25T01:38:37.658Z,9.40
2019-05-25T01:41:06.815Z,9.40
2019-05-25T01:43:36.160Z,9.30
2019-05-25T01:46:05.240Z,9.30
2019-05-25T01:48:34.297Z,9.30
2019-05-25T01:51:03.505Z,9.30
2019-05-25T01:53:32.419Z,9.30
2019-05-25T01:56:01.384Z,9.30
2019-05-25T01:58:31.744Z,9.30
2019-05-25T02:01:00.720Z,9.20
2019-05-25T02:03:29.743Z,9.20
2019-05-25T02:05:58.800Z,9.20
2019-05-25T02:08:27.808Z,9.20
2019-05-25T02:10:56.768Z,9.20
2019-05-25T02:13:25.776Z,9.20
2019-05-25T02:15:54.881Z,9.20
2019-05-25T02:18:23.867Z,9.20
2019-05-25T02:20:53.128Z,9.20
2019-05-25T02:23:22.520Z,9.10
2019-05-25T02:25:52.020Z,9.10
2019-05-25T02:28:20.967Z,9.10
2019-05-25T02:30:50.194Z,9.10
2019-05-25T02:33:19.200Z,9.10
2019-05-25T02:35:48.519Z,9.10
2019-05-25T02:38:17.603Z,9.10
2019-05-25T02:40:46.624Z,9.10
2019-05-25T02:43:15.971Z,9.10
2019-05-25T02:45:45.056Z,9.10
2019-05-25T02:48:14.225Z,9.10
2019-05-25T02:50:43.401Z,9.00
2019-05-25T02:53:12.600Z,9.00
2019-05-25T02:55:41.744Z,9.10
2019-05-25T02:58:10.727Z,9.00
2019-05-25T03:00:39.753Z,9.00
2019-05-25T03:03:08.879Z,9.00
2019-05-25T03:05:38.161Z,8.90
2019-05-25T03:08:07.309Z,8.90
2019-05-25T03:10:38.038Z,8.90
2019-05-25T03:13:07.064Z,8.90
2019-05-25T03:15:35.960Z,8.90
2019-05-25T03:18:05.097Z,8.80
2019-05-25T03:20:34.144Z,8.80
2019-05-25T03:23:03.050Z,8.80
2019-05-25T03:25:32.040Z,8.80
2019-05-25T03:28:01.176Z,8.80
2019-05-25T03:30:38.064Z,8.70
2019-05-25T03:33:07.218Z,8.70
2019-05-25T03:35:36.169Z,8.70
2019-05-25T03:38:08.565Z,8.70
2019-05-25T03:40:37.656Z,8.60
2019-05-25T03:43:06.689Z,8.60
2019-05-25T03:45:35.794Z,8.50
2019-05-25T03:48:04.815Z,8.50
2019-05-25T03:50:34.120Z,8.50
2019-05-25T03:53:03.140Z,8.40
2019-05-25T03:55:32.671Z,8.30
2019-05-25T03:58:01.856Z,8.30
2019-05-25T04:00:36.114Z,8.20
2019-05-25T04:03:06.032Z,8.10
2019-05-25T04:05:35.080Z,8.00
2019-05-25T04:08:04.355Z,8.00
2019-05-25T04:10:33.491Z,7.90
2019-05-25T04:13:03.393Z,7.90
2019-05-25T04:15:32.372Z,7.80
2019-05-25T04:18:01.682Z,7.80
2019-05-25T04:20:30.655Z,7.80
2019-05-25T04:22:59.913Z,7.70
2019-05-25T04:25:28.938Z,7.70
2019-05-25T04:27:57.945Z,7.60
2019-05-25T04:30:27.208Z,7.70
2019-05-25T04:32:56.192Z,7.70
2019-05-25T04:35:26.234Z,7.70
2019-05-25T04:37:55.242Z,7.70
2019-05-25T04:40:24.320Z,7.70
2019-05-25T04:42:53.352Z,7.70
2019-05-25T04:45:22.336Z,7.70
2019-05-25T04:47:51.264Z,7.70
2019-05-25T04:50:20.410Z,7.70
2019-05-25T04:52:49.375Z,7.70
2019-05-25T04:55:18.632Z,7.70
2019-05-25T04:57:47.688Z,7.70
2019-05-25T05:00:17.072Z,7.70
2019-05-25T05:02:46.120Z,7.70
2019-05-25T05:05:15.200Z,7.70
2019-05-25T05:07:44.083Z,7.80
2019-05-25T05:10:13.577Z,7.80
2019-05-25T05:12:42.728Z,7.80
2019-05-25T05:15:12.305Z,7.80
2019-05-25T05:17:41.360Z,7.90
2019-05-25T05:20:12.041Z,7.90
2019-05-25T05:22:41.192Z,7.90
2019-05-25T05:25:10.954Z,8.00
2019-05-25T05:27:40.761Z,8.00
2019-05-25T05:30:10.018Z,8.10
2019-05-25T05:32:39.328Z,8.20
2019-05-25T05:35:09.505Z,8.30
2019-05-25T05:37:40.064Z,8.30
2019-05-25T05:40:10.321Z,8.40
2019-05-25T05:42:39.888Z,8.50
2019-05-25T05:45:09.479Z,8.50
2019-05-25T05:47:39.864Z,8.60
2019-05-25T05:50:10.320Z,8.70
2019-05-25T05:52:39.444Z,8.80
2019-05-25T05:55:13.014Z,8.90
2019-05-25T05:57:43.920Z,9.10
2019-05-25T06:00:13.218Z,9.10
2019-05-25T06:02:42.321Z,9.20
2019-05-25T06:05:11.488Z,9.30
2019-05-25T06:07:40.905Z,9.50
2019-05-25T06:10:10.137Z,9.70
2019-05-25T06:12:39.108Z,9.80
2019-05-25T06:15:08.402Z,9.70
2019-05-25T06:17:37.393Z,9.80
2019-05-25T06:20:09.307Z,10.00
2019-05-25T06:22:38.527Z,10.10
2019-05-25T06:25:08.747Z,10.30
2019-05-25T06:27:37.832Z,10.40
2019-05-25T06:30:08.752Z,10.40
2019-05-25T06:32:38.153Z,10.40
2019-05-25T06:35:08.490Z,10.30
2019-05-25T06:37:40.090Z,10.30
2019-05-25T06:40:09.627Z,10.30
2019-05-25T06:42:38.824Z,10.20
2019-05-25T06:45:08.345Z,10.40
2019-05-25T06:47:37.287Z,10.30
2019-05-25T06:50:10.289Z,10.20
2019-05-25T06:52:40.227Z,10.30
2019-05-25T06:55:09.266Z,10.30
2019-05-25T06:57:43.185Z,10.60
2019-05-25T07:00:09.559Z,10.70
2019-05-25T07:02:38.577Z,10.70
2019-05-25T07:05:08.807Z,10.60
2019-05-25T07:07:37.771Z,10.60
2019-05-25T07:10:07.768Z,10.70
2019-05-25T07:12:36.951Z,10.70
2019-05-25T07:15:09.331Z,10.80
2019-05-25T07:17:38.217Z,11.00
2019-05-25T07:20:10.424Z,11.20
2019-05-25T07:22:39.373Z,11.40
2019-05-25T07:25:09.696Z,11.60
2019-05-25T07:27:38.755Z,11.60
2019-05-25T07:30:09.849Z,11.50
2019-05-25T07:32:38.854Z,11.80
2019-05-25T07:35:08.375Z,12.00
2019-05-25T07:37:37.264Z,11.90
2019-05-25T07:40:07.242Z,11.80
2019-05-25T07:42:39.240Z,12.00
2019-05-25T07:45:09.527Z,12.00
2019-05-25T07:47:38.681Z,12.00
2019-05-25T07:50:08.556Z,12.20
2019-05-25T07:52:37.408Z,12.30
2019-05-25T07:55:07.425Z,12.20
2019-05-25T07:57:36.464Z,12.10
2019-05-25T08:00:09.617Z,12.40
2019-05-25T08:02:38.520Z,12.10
2019-05-25T08:05:09.305Z,11.50
2019-05-25T08:07:38.390Z,11.40
2019-05-25T08:10:07.920Z,11.80
2019-05-25T08:12:36.897Z,12.10
2019-05-25T08:15:07.324Z,12.30
2019-05-25T08:17:36.632Z,12.30
2019-05-25T08:20:06.744Z,12.50
2019-05-25T08:22:35.600Z,12.60
2019-05-25T08:25:06.905Z,12.40
2019-05-25T08:27:35.816Z,12.60
2019-05-25T08:30:06.921Z,12.70
2019-05-25T08:32:35.865Z,13.00
2019-05-25T08:35:07.127Z,13.20
2019-05-25T08:37:36.674Z,13.00
2019-05-25T08:40:07.424Z,13.20
2019-05-25T08:42:37.056Z,13.40
2019-05-25T08:45:10.745Z,12.90
2019-05-25T08:47:39.776Z,13.10
2019-05-25T08:50:08.953Z,13.20
2019-05-25T08:52:38.544Z,12.90
2019-05-25T08:55:09.136Z,12.90
2019-05-25T08:57:38.096Z,13.20
2019-05-25T09:00:08.335Z,13.30
2019-05-25T09:02:39.653Z,13.00
2019-05-25T09:05:08.922Z,12.80
2019-05-25T09:07:38.312Z,13.00
2019-05-25T09:10:11.185Z,12.90
2019-05-25T09:12:40.203Z,12.70
2019-05-25T09:15:11.200Z,12.80
2019-05-25T09:17:40.707Z,13.10
2019-05-25T09:20:10.996Z,13.20
2019-05-25T09:22:45.489Z,13.00
2019-05-25T09:25:14.905Z,12.70
2019-05-25T09:27:47.105Z,12.90
2019-05-25T09:30:17.049Z,13.10
2019-05-25T09:32:49.687Z,13.10
2019-05-25T09:35:19.080Z,13.10
2019-05-25T09:37:49.128Z,13.20
2019-05-25T09:40:18.401Z,13.40
2019-05-25T09:42:47.366Z,12.90
2019-05-25T09:45:16.542Z,12.90
2019-05-25T09:47:45.496Z,12.60
2019-05-25T09:50:15.800Z,12.70
2019-05-25T09:52:44.801Z,12.40
2019-05-25T09:55:13.993Z,12.10
2019-05-25T09:57:55.856Z,12.30
2019-05-25T10:00:39.886Z,12.20
2019-05-25T10:03:10.724Z,12.00
2019-05-25T10:05:39.784Z,12.10
2019-05-25T10:08:08.880Z,12.20
2019-05-25T10:10:51.146Z,12.70
2019-05-25T10:13:20.491Z,12.90
2019-05-25T10:15:53.023Z,12.50
2019-05-25T10:18:22.017Z,12.80
2019-05-25T10:20:51.425Z,12.50
2019-05-25T10:23:21.130Z,12.90
2019-05-25T10:25:53.024Z,13.10
2019-05-25T10:28:23.232Z,13.20
2019-05-25T10:30:52.568Z,13.50
2019-05-25T10:33:21.934Z,13.20
2019-05-25T10:35:51.029Z,13.20
2019-05-25T10:38:20.400Z,13.30
2019-05-25T10:40:50.241Z,12.50
2019-05-25T10:43:19.209Z,12.40
2019-05-25T10:45:51.016Z,12.30
2019-05-25T10:48:20.184Z,12.70
2019-05-25T10:50:49.304Z,13.00
2019-05-25T10:53:25.281Z,13.00
2019-05-25T10:55:54.432Z,13.00
2019-05-25T10:58:23.576Z,12.80
2019-05-25T11:00:53.873Z,12.90
2019-05-25T11:03:25.372Z,12.80
2019-05-25T11:05:54.720Z,13.20
2019-05-25T11:08:24.673Z,13.40
2019-05-25T11:10:53.975Z,13.80
2019-05-25T11:13:23.641Z,14.00
2019-05-25T11:15:53.560Z,14.30
2019-05-25T11:18:22.920Z,14.50
2019-05-25T11:20:52.320Z,14.80
2019-05-25T11:23:21.769Z,14.60
2019-05-25T11:25:51.411Z,14.70
2019-05-25T11:28:23.017Z,14.60
2019-05-25T11:30:52.849Z,14.30
2019-05-25T11:33:22.171Z,13.70
2019-05-25T11:35:54.389Z,13.80
2019-05-25T11:38:25.789Z,13.40
2019-05-25T11:40:56.193Z,13.70
2019-05-25T11:43:25.768Z,14.10
2019-05-25T11:45:56.865Z,14.10
2019-05-25T11:48:26.289Z,14.40
2019-05-25T11:50:55.601Z,14.70
2019-05-25T11:53:25.176Z,15.00
2019-05-25T11:55:55.473Z,14.80
2019-05-25T11:58:26.559Z,14.60
2019-05-25T12:00:56.168Z,14.40
2019-05-25T12:03:25.776Z,14.30
2019-05-25T12:05:54.913Z,14.50
2019-05-25T12:08:25.824Z,13.60
2019-05-25T12:10:55.473Z,13.30
2019-05-25T12:13:26.457Z,12.60
2019-05-25T12:15:55.849Z,12.80
2019-05-25T12:18:25.160Z,13.30
2019-05-25T12:20:54.945Z,13.40
2019-05-25T12:23:24.081Z,13.90
2019-05-25T12:25:53.647Z,14.00
2019-05-25T12:28:24.953Z,14.60
2019-05-25T12:30:53.993Z,15.10
2019-05-25T12:33:23.273Z,15.30
2019-05-25T12:35:52.770Z,15.40
2019-05-25T12:38:22.049Z,15.40
2019-05-25T12:40:53.923Z,15.60
2019-05-25T12:43:23.960Z,15.50
2019-05-25T12:45:53.260Z,15.40
2019-05-25T12:48:22.824Z,15.40
2019-05-25T12:50:52.593Z,15.30
2019-05-25T12:53:21.992Z,15.10
2019-05-25T12:55:51.473Z,15.10
2019-05-25T12:58:23.717Z,15.10
2019-05-25T13:00:56.096Z,15.00
2019-05-25T13:03:23.720Z,14.90
2019-05-25T13:05:53.243Z,14.70
2019-05-25T13:08:22.841Z,14.50
2019-05-25T13:10:52.306Z,14.40
2019-05-25T13:13:22.153Z,14.40
2019-05-25T13:15:51.449Z,14.30
2019-05-25T13:18:20.832Z,14.20
2019-05-25T13:20:49.944Z,14.00
2019-05-25T13:23:19.915Z,13.90
2019-05-25T13:25:49.464Z,13.80
2019-05-25T13:28:21.368Z,13.70
2019-05-25T13:30:50.942Z,13.60
2019-05-25T13:33:20.402Z,13.50
2019-05-25T13:35:51.281Z,13.60
2019-05-25T13:38:20.656Z,13.70
2019-05-25T13:40:51.124Z,13.70
2019-05-25T13:43:20.849Z,13.70
2019-05-25T13:45:50.289Z,13.50
2019-05-25T13:48:19.747Z,13.40
2019-05-25T13:50:48.859Z,13.40
2019-05-25T13:53:18.328Z,13.40
2019-05-25T13:55:47.843Z,13.40
2019-05-25T13:58:16.922Z,13.40
2019-05-25T14:00:46.585Z,13.30
2019-05-25T14:03:15.840Z,13.20
2019-05-25T14:05:46.832Z,13.10
2019-05-25T14:08:16.337Z,13.10
2019-05-25T14:10:48.776Z,13.00
2019-05-25T14:13:18.128Z,12.90
2019-05-25T14:15:47.321Z,12.90
2019-05-25T14:18:16.687Z,12.90
2019-05-25T14:20:46.336Z,12.90
2019-05-25T14:23:15.524Z,12.80
2019-05-25T14:25:44.673Z,12.70
2019-05-25T14:28:13.786Z,12.60
2019-05-25T14:30:43.017Z,12.50
2019-05-25T14:33:12.064Z,12.40
2019-05-25T14:35:41.709Z,12.40
2019-05-25T14:38:11.355Z,12.30
2019-05-25T14:40:40.705Z,12.30
2019-05-25T14:43:09.908Z,12.20
2019-05-25T14:45:38.961Z,12.10
2019-05-25T14:48:08.377Z,11.80
2019-05-25T14:50:37.897Z,11.80
2019-05-25T14:53:09.195Z,11.80
2019-05-25T14:55:38.060Z,11.60
2019-05-25T14:58:07.600Z,11.70
2019-05-25T15:00:36.974Z,11.70
2019-05-25T15:03:06.305Z,11.80
2019-05-25T15:05:35.912Z,11.80
2019-05-25T15:08:05.178Z,11.70
2019-05-25T15:10:34.328Z,11.70
2019-05-25T15:13:03.641Z,11.60
2019-05-25T15:15:33.129Z,11.50
2019-05-25T15:18:02.835Z,11.30
2019-05-25T15:20:32.471Z,11.20
2019-05-25T15:23:01.850Z,11.10
2019-05-25T15:25:31.912Z,11.10
2019-05-25T15:28:01.009Z,11.00
2019-05-25T15:30:30.217Z,11.00
2019-05-25T15:32:59.686Z,11.20
2019-05-25T15:35:29.105Z,11.30
2019-05-25T15:37:58.461Z,11.20
2019-05-25T15:40:28.117Z,11.10
2019-05-25T15:42:57.441Z,11.20
2019-05-25T15:45:28.186Z,11.20
2019-05-25T15:47:57.672Z,11.30
2019-05-25T15:50:26.873Z,11.50
2019-05-25T15:52:56.924Z,11.50
2019-05-25T15:55:26.513Z,11.40
2019-05-25T15:57:55.818Z,11.50
2019-05-25T16:00:27.809Z,11.70
2019-05-25T16:02:57.410Z,11.90
2019-05-25T16:05:26.841Z,11.90
2019-05-25T16:07:56.489Z,12.00
2019-05-25T16:10:25.721Z,11.90
2019-05-25T16:12:54.969Z,12.10
2019-05-25T16:15:30.023Z,12.30
2019-05-25T16:17:59.624Z,12.20
2019-05-25T16:20:29.120Z,12.40
2019-05-25T16:22:58.585Z,12.10
2019-05-25T16:25:27.625Z,12.20
2019-05-25T16:27:57.330Z,12.50
2019-05-25T16:30:26.587Z,12.40
2019-05-25T16:33:13.689Z,12.40
2019-05-25T16:35:26.641Z,12.50
2019-05-25T16:37:56.299Z,12.60
2019-05-25T16:40:25.872Z,12.40
2019-05-25T16:42:55.464Z,12.40
2019-05-25T16:45:24.708Z,12.30
2019-05-25T16:47:56.048Z,12.20
2019-05-25T16:50:25.488Z,12.30
2019-05-25T16:52:55.053Z,12.30
2019-05-25T16:55:24.840Z,12.10
2019-05-25T16:57:54.347Z,12.00
2019-05-25T17:00:28.192Z,12.10
2019-05-25T17:02:59.010Z,12.10
2019-05-25T17:05:28.802Z,12.10
2019-05-25T17:07:58.369Z,12.20
2019-05-25T17:10:28.150Z,12.10
2019-05-25T17:12:58.520Z,11.80
2019-05-25T17:15:28.269Z,11.70
2019-05-25T17:17:57.657Z,11.40
2019-05-25T17:20:28.686Z,11.20
2019-05-25T17:22:58.376Z,11.20
2019-05-25T17:25:27.503Z,11.30
2019-05-25T17:27:56.690Z,11.50
2019-05-25T17:30:45.215Z,11.50
2019-05-25T17:33:15.358Z,11.30
2019-05-25T17:35:44.719Z,11.00
2019-05-25T17:38:14.530Z,11.10
2019-05-25T17:40:45.794Z,11.00
2019-05-25T17:43:18.273Z,10.90
2019-05-25T17:45:48.192Z,10.90
2019-05-25T17:48:17.771Z,10.90
2019-05-25T17:50:47.182Z,10.80
2019-05-25T17:53:16.361Z,10.80
2019-05-25T17:55:45.784Z,10.70
2019-05-25T17:58:15.271Z,10.70
2019-05-25T18:00:47.914Z,10.70
2019-05-25T18:03:18.003Z,10.70
2019-05-25T18:05:47.896Z,10.50
2019-05-25T18:08:18.472Z,10.50
2019-05-25T18:10:54.910Z,10.50
2019-05-25T18:13:19.489Z,10.50
2019-05-25T18:15:49.265Z,10.50
2019-05-25T18:18:20.257Z,10.50
2019-05-25T18:20:53.129Z,10.40
2019-05-25T18:23:22.105Z,10.40
2019-05-25T18:25:51.213Z,10.30
2019-05-25T18:28:20.912Z,10.20
2019-05-25T18:30:50.727Z,10.20
2019-05-25T18:33:20.212Z,10.10
2019-05-25T18:35:49.567Z,10.10
2019-05-25T18:49:47.002Z,10.00
2019-05-25T18:52:16.553Z,10.00
2019-05-25T18:54:46.960Z,10.00
2019-05-25T18:57:16.425Z,9.90
2019-05-25T18:59:46.025Z,9.90
2019-05-25T19:02:16.208Z,9.80
2019-05-25T19:04:54.468Z,9.80
2019-05-25T19:07:17.541Z,9.80
2019-05-25T19:09:47.320Z,9.70
2019-05-25T19:12:16.681Z,9.70
2019-05-25T19:14:46.104Z,9.60
2019-05-25T19:17:15.240Z,9.60
2019-05-25T19:19:45.096Z,9.60
2019-05-25T19:22:15.065Z,9.50
2019-05-25T19:24:47.416Z,9.50
2019-05-25T19:27:17.328Z,9.40
2019-05-25T19:29:49.353Z,9.40
2019-05-25T19:32:18.442Z,9.30
2019-05-25T19:34:59.057Z,9.20
2019-05-25T19:37:19.201Z,9.10
2019-05-25T19:39:50.672Z,9.10
2019-05-25T19:42:19.905Z,9.00
2019-05-25T19:44:52.641Z,9.00
2019-05-25T19:47:21.896Z,9.00
2019-05-25T19:49:51.538Z,9.00
2019-05-25T19:52:20.864Z,8.90
2019-05-25T19:54:56.745Z,8.90
2019-05-25T19:57:26.224Z,8.90
2019-05-25T19:59:55.913Z,8.80
2019-05-25T20:02:25.752Z,8.80
2019-05-25T20:04:55.393Z,8.80
2019-05-25T20:07:25.095Z,8.80
2019-05-25T20:09:55.255Z,8.80
2019-05-25T20:12:24.997Z,8.80
2019-05-25T20:14:54.944Z,8.80
2019-05-25T20:17:24.424Z,8.80
2019-05-25T20:19:54.321Z,8.80
2019-05-25T20:22:24.433Z,8.80
2019-05-25T20:24:54.330Z,8.80
2019-05-25T20:27:23.888Z,8.80
2019-05-25T20:29:56.408Z,8.70
2019-05-25T20:32:27.107Z,8.70
2019-05-25T20:34:57.154Z,8.70
2019-05-25T20:37:26.641Z,8.70
2019-05-25T20:39:57.201Z,8.70
2019-05-25T20:42:27.431Z,8.70
2019-05-25T20:44:58.332Z,8.60
2019-05-25T20:47:28.135Z,8.60
2019-05-25T20:49:57.984Z,8.60
2019-05-25T20:52:27.329Z,8.60
2019-05-25T20:54:56.865Z,8.60
2019-05-25T20:57:26.336Z,8.60
2019-05-25T20:59:56.104Z,8.50
2019-05-25T21:02:25.426Z,8.50
2019-05-25T21:04:54.992Z,8.50
2019-05-25T21:07:24.817Z,8.50
2019-05-25T21:09:54.680Z,8.50
2019-05-25T21:12:24.043Z,8.50
2019-05-25T21:14:53.424Z,8.50
2019-05-25T21:17:24.408Z,8.50
2019-05-25T21:19:53.789Z,8.50
2019-05-25T21:22:23.266Z,8.40
2019-05-25T21:24:52.536Z,8.40
2019-05-25T21:27:23.648Z,8.40
2019-05-25T21:29:52.713Z,8.40
2019-05-25T21:32:22.016Z,8.40
2019-05-25T21:34:51.328Z,8.40
2019-05-25T21:37:20.345Z,8.50
2019-05-25T21:39:49.324Z,8.50
2019-05-25T21:42:18.385Z,8.50
2019-05-25T21:44:47.825Z,8.50
2019-05-25T21:47:17.490Z,8.50
2019-05-25T21:49:47.368Z,8.50
2019-05-25T21:52:17.043Z,8.50
2019-05-25T21:54:46.776Z,8.50
2019-05-25T21:57:17.440Z,8.50
2019-05-25T21:59:46.960Z,8.50
2019-05-25T22:02:16.737Z,8.50
2019-05-25T22:04:46.543Z,8.50
2019-05-25T22:07:15.939Z,8.60
2019-05-25T22:09:45.424Z,8.60
2019-05-25T22:12:14.785Z,8.50
2019-05-25T22:14:43.735Z,8.60
2019-05-25T22:17:12.745Z,8.60
2019-05-25T22:19:41.850Z,8.50
2019-05-25T22:22:11.582Z,8.50
2019-05-25T22:24:41.473Z,8.50
2019-05-25T22:27:10.593Z,8.50
2019-05-25T22:29:39.618Z,8.50
2019-05-25T22:32:09.010Z,8.50
2019-05-25T22:34:38.069Z,8.50
2019-05-25T22:37:07.924Z,8.60
2019-05-25T22:39:37.272Z,8.60
2019-05-25T22:42:06.314Z,8.50
2019-05-25T22:44:35.325Z,8.50
2019-05-25T22:47:04.432Z,8.50
2019-05-25T22:49:33.368Z,8.50
2019-05-25T22:52:03.341Z,8.50
2019-05-25T22:54:32.784Z,8.50
2019-05-25T22:57:02.219Z,8.50
2019-05-25T22:59:31.201Z,8.50
2019-05-25T23:02:00.528Z,8.50
2019-05-25T23:04:29.737Z,8.50
2019-05-25T23:06:59.168Z,8.50
2019-05-25T23:09:28.477Z,8.50
2019-05-25T23:11:58.082Z,8.50
2019-05-25T23:14:27.440Z,8.50
2019-05-25T23:16:56.880Z,8.50
2019-05-25T23:19:26.019Z,8.50
2019-05-25T23:21:55.664Z,8.50
2019-05-25T23:30:40.969Z,8.60
2019-05-25T23:39:03.904Z,8.50
2019-05-25T23:41:33.273Z,8.50
2019-05-25T23:44:02.608Z,8.50
2019-05-25T23:46:31.752Z,8.50
2019-05-25T23:49:00.956Z,8.50
2019-05-25T23:51:30.056Z,8.50
2019-05-25T23:53:59.305Z,8.50
2019-05-25T23:56:28.552Z,8.50
2019-05-25T23:58:57.556Z,8.50
